Saint Johnsbury, Vermont
Current Conditions -  °F | °C
As of 1:55 PM on Sunday 23 Nov 2014 (Local Time) from KCDA Reporting Station
Overcast Overcast  
Wind Chill: 40°   Ceiling: 1800
Heat Index: 40°   Visibility: 7mi
Dew Point: 37°   Wind: 3mph
Humidity: 88%   Direction: 90°E
Pressure: 30.07"   Gusts: NA
Location:  44.42°N, 72.01°W
Report Text: KCDA 231855Z AUTO 09003KT 7SM BKN018 BKN024 OVC049 05/03 A3007 RMK AO2 T00450027
Loading
Personal Weather Stations






























Interactive Weather Map New forecast layout! Learn more

10-Day Weather Forecast

Advertisements
Track Severe Weather on mobile